Time;durP1;ratioP1;P1;durP2;ratioP2;P2;SDS_P1;SDS_P2;PMS_P1;PMS_P2;Temp;Humidity;BMP_temperature;BMP_pressure;BME280_temperature;BME280_humidity;BME280_pressure;Samples;Min_cycle;Max_cycle;Signal;HPM_P1;HPM_P2
2021/06/24 00:00:57;;;;;;;12.38;8.32;;;;;;;14.96;76.98;101805.81;5065695;28;20087;-68
2021/06/24 00:03:25;;;;;;;10.45;7.20;;;;;;;14.95;77.12;101804.16;5068960;28;20047;-67
2021/06/24 00:05:50;;;;;;;15.43;8.93;;;;;;;14.96;77.16;101815.44;5068296;28;20033;-68
2021/06/24 00:08:16;;;;;;;10.00;7.30;;;;;;;14.94;77.30;101804.34;5069264;28;20067;-67
2021/06/24 00:10:43;;;;;;;11.00;7.25;;;;;;;14.95;77.22;101803.34;5066456;28;20099;-67
2021/06/24 00:13:09;;;;;;;13.10;7.45;;;;;;;14.95;77.15;101808.56;5054201;28;20028;-67
2021/06/24 00:15:35;;;;;;;12.07;7.38;;;;;;;14.95;77.12;101803.34;5068006;28;20097;-67
2021/06/24 00:18:02;;;;;;;12.85;8.02;;;;;;;14.93;77.23;101800.91;5068455;28;20032;-67
2021/06/24 00:20:28;;;;;;;11.63;8.40;;;;;;;14.92;77.29;101801.88;5069333;28;20032;-68
2021/06/24 00:22:54;;;;;;;14.45;7.40;;;;;;;14.93;77.24;101800.09;5068620;28;20067;-67
2021/06/24 00:25:20;;;;;;;11.15;7.78;;;;;;;14.92;77.18;101796.66;5068957;28;20028;-67
2021/06/24 00:27:45;;;;;;;13.57;7.75;;;;;;;14.91;77.29;101795.00;5068343;28;20044;-67
2021/06/24 00:30:12;;;;;;;12.98;7.03;;;;;;;14.91;77.49;101796.81;5067979;28;20028;-67
2021/06/24 00:32:38;;;;;;;9.45;7.20;;;;;;;14.90;77.54;101796.00;5067354;28;20093;-68
2021/06/24 00:35:05;;;;;;;9.52;7.35;;;;;;;14.91;77.61;101797.63;5067069;28;20111;-69
2021/06/24 00:37:33;;;;;;;15.60;8.23;;;;;;;14.91;77.60;101802.84;5068802;28;20036;-67
2021/06/24 00:39:59;;;;;;;16.45;8.48;;;;;;;14.89;77.89;101796.97;5053809;28;20037;-68
2021/06/24 00:42:26;;;;;;;14.80;9.30;;;;;;;14.87;78.03;101798.94;5043186;28;20971;-67
2021/06/24 00:44:52;;;;;;;10.15;8.13;;;;;;;14.92;78.11;101798.47;5067608;28;20040;-67
2021/06/24 00:47:18;;;;;;;20.20;9.15;;;;;;;14.94;77.63;101802.53;5050383;28;20024;-67
2021/06/24 00:49:45;;;;;;;15.43;9.20;;;;;;;14.92;77.40;101801.06;5068525;28;20500;-68
2021/06/24 00:52:11;;;;;;;18.67;7.68;;;;;;;14.85;77.75;101813.94;5050180;28;20039;-68
2021/06/24 00:54:37;;;;;;;16.10;8.40;;;;;;;14.98;77.61;101808.25;5049855;28;20097;-68
2021/06/24 00:57:06;;;;;;;19.67;8.73;;;;;;;14.92;77.24;101807.09;5048183;28;20032;-67
2021/06/24 00:59:34;;;;;;;15.27;8.23;;;;;;;14.99;76.95;101797.66;5049612;28;20029;-67
2021/06/24 01:02:00;;;;;;;13.98;8.07;;;;;;;14.95;77.46;101801.53;5047191;28;20033;-67
2021/06/24 01:04:26;;;;;;;16.88;9.27;;;;;;;14.91;77.37;101812.50;5049495;28;20496;-67
2021/06/24 01:06:56;;;;;;;15.82;8.52;;;;;;;14.90;77.16;101803.00;5049516;28;20489;-68
2021/06/24 01:09:23;;;;;;;11.82;7.75;;;;;;;14.89;77.11;101801.38;5048345;28;20132;-68
2021/06/24 01:11:49;;;;;;;12.90;8.40;;;;;;;14.85;77.66;101797.47;5052576;28;20116;-67
2021/06/24 01:14:16;;;;;;;16.73;8.98;;;;;;;14.82;77.57;101793.38;5068127;28;20120;-67
2021/06/24 01:16:42;;;;;;;17.85;8.93;;;;;;;14.89;77.13;101796.16;5065505;28;20121;-67
2021/06/24 01:19:11;;;;;;;19.88;9.60;;;;;;;14.85;77.46;101794.84;5067998;28;20050;-68
2021/06/24 01:21:37;;;;;;;13.48;8.77;;;;;;;14.80;77.65;101805.75;5049295;28;20054;-67
2021/06/24 01:24:03;;;;;;;15.02;8.48;;;;;;;14.79;77.31;101785.88;5068013;28;20025;-67
2021/06/24 01:26:29;;;;;;;14.18;8.40;;;;;;;14.72;77.36;101795.31;5051849;28;20036;-68
2021/06/24 01:28:55;;;;;;;15.20;8.15;;;;;;;14.78;77.46;101786.84;5049204;28;20036;-68
2021/06/24 01:31:22;;;;;;;17.67;9.45;;;;;;;14.76;77.34;101788.78;5049201;28;20032;-67
2021/06/24 01:33:48;;;;;;;13.82;8.85;;;;;;;14.74;77.09;101788.13;5065153;28;20032;-67
2021/06/24 01:36:15;;;;;;;15.93;9.57;;;;;;;14.76;76.70;101784.38;5046318;28;20055;-67
2021/06/24 01:38:45;;;;;;;13.60;9.30;;;;;;;14.74;76.84;101781.09;5048343;28;20028;-67
2021/06/24 01:41:25;;;;;;;;;;;;;;;14.66;76.88;101777.69;5068190;28;20052;-67
2021/06/24 01:43:52;;;;;;;13.52;7.72;;;;;;;14.64;77.14;101785.66;5054264;28;20015;-67
2021/06/24 01:46:18;;;;;;;16.25;9.07;;;;;;;14.66;77.36;101786.31;5063624;28;20096;-67
2021/06/24 01:48:44;;;;;;;16.13;8.93;;;;;;;14.68;76.88;101780.94;5054737;28;20158;-67
2021/06/24 01:51:10;;;;;;;24.02;9.30;;;;;;;14.59;77.25;101787.94;5048943;28;20058;-68
2021/06/24 01:53:36;;;;;;;13.50;8.30;;;;;;;14.53;77.32;101781.50;5066348;28;20073;-67
2021/06/24 01:56:05;;;;;;;17.98;8.68;;;;;;;14.56;77.37;101789.03;5049854;28;20601;-67
2021/06/24 01:58:33;;;;;;;20.83;9.93;;;;;;;14.55;76.86;101776.94;5049603;28;20435;-67
2021/06/24 02:01:07;;;;;;;24.48;9.23;;;;;;;14.56;76.71;101785.59;5050904;28;20311;-67
2021/06/24 02:03:42;;;;;;;16.73;9.90;;;;;;;14.51;76.84;101777.44;5046344;28;20036;-67
2021/06/24 02:06:08;;;;;;;16.23;7.97;;;;;;;14.46;77.26;101772.69;5065031;28;20500;-67
2021/06/24 02:08:36;;;;;;;20.50;8.75;;;;;;;14.40;77.32;101775.91;5067504;28;20033;-67
2021/06/24 02:11:19;;;;;;;15.15;8.52;;;;;;;14.37;77.35;101768.41;5053031;28;20489;-68
2021/06/24 02:13:48;;;;;;;15.60;9.52;;;;;;;14.43;77.21;101766.94;5047299;28;20052;-67
2021/06/24 02:16:13;;;;;;;15.00;9.10;;;;;;;14.48;77.18;101765.50;5071301;28;20063;-67
2021/06/24 02:18:39;;;;;;;22.58;9.98;;;;;;;14.44;77.17;101771.22;5051657;28;20224;-67
2021/06/24 02:21:10;;;;;;;20.55;8.23;;;;;;;14.40;77.42;101773.31;5052377;28;20044;-67
2021/06/24 02:23:54;;;;;;;13.75;8.70;;;;;;;14.40;77.38;101771.50;5038181;28;20039;-68
2021/06/24 02:26:24;;;;;;;16.05;8.70;;;;;;;14.36;77.80;101762.38;5068526;28;20032;-67
2021/06/24 02:28:59;;;;;;;15.23;8.68;;;;;;;14.25;78.20;101759.22;5031051;28;20147;-67
2021/06/24 02:31:28;;;;;;;18.92;9.45;;;;;;;14.20;78.31;101752.69;5069564;28;20028;-67
2021/06/24 02:33:57;;;;;;;17.02;8.77;;;;;;;14.23;77.98;101754.16;5052339;28;20456;-68
2021/06/24 02:36:37;;;;;;;18.30;8.98;;;;;;;14.18;77.94;101746.00;5055082;28;20493;-67
2021/06/24 02:39:04;;;;;;;21.67;9.25;;;;;;;14.11;78.42;101753.63;5052844;28;20071;-67
2021/06/24 02:41:35;;;;;;;17.70;10.40;;;;;;;14.09;78.71;101744.31;5053240;28;20036;-67
2021/06/24 02:44:03;;;;;;;17.10;8.77;;;;;;;14.07;78.68;101741.06;5062922;28;20077;-67
2021/06/24 02:46:28;;;;;;;15.65;9.15;;;;;;;14.02;78.87;101744.13;5055122;28;20123;-67
2021/06/24 02:48:54;;;;;;;17.25;8.77;;;;;;;14.05;78.80;101738.59;5049915;28;20127;-67
2021/06/24 02:51:30;;;;;;;19.45;9.15;;;;;;;14.01;78.87;101743.31;5041271;28;20040;-67
2021/06/24 02:54:25;;;;;;;15.95;8.68;;;;;;;14.01;79.13;101740.72;5055139;28;20050;-67
2021/06/24 02:56:57;;;;;;;19.60;8.65;;;;;;;13.96;79.48;101739.56;5053794;28;20045;-68
2021/06/24 02:59:42;;;;;;;13.57;8.40;;;;;;;13.90;79.74;101730.56;5069369;28;20102;-67
2021/06/24 03:02:07;;;;;;;21.90;9.30;;;;;;;13.94;79.46;101737.09;5051890;28;20040;-67
2021/06/24 03:04:36;;;;;;;20.05;10.95;;;;;;;13.94;79.00;101742.31;5053182;28;20043;-68
2021/06/24 03:07:02;;;;;;;18.55;9.20;;;;;;;13.89;79.41;101743.75;5052810;28;20639;-67
2021/06/24 03:09:34;;;;;;;15.85;8.80;;;;;;;13.78;80.13;101743.03;5039041;28;20043;-67
2021/06/24 03:12:00;;;;;;;15.10;9.75;;;;;;;13.81;79.93;101747.94;5051748;28;20031;-67
2021/06/24 03:14:26;;;;;;;17.55;9.73;;;;;;;13.75;79.93;101748.56;5053262;28;20118;-67
2021/06/24 03:16:52;;;;;;;22.23;10.63;;;;;;;13.77;79.83;101745.81;5062757;28;20064;-67
2021/06/24 03:19:20;;;;;;;19.48;9.27;;;;;;;13.75;79.90;101742.50;5070282;28;20060;-67
2021/06/24 03:22:04;;;;;;;15.85;9.05;;;;;;;13.70;79.89;101748.19;5069574;28;20089;-68
2021/06/24 03:24:39;;;;;;;17.50;9.10;;;;;;;13.67;79.94;101745.06;5057266;28;20035;-68
2021/06/24 03:27:07;;;;;;;18.23;10.00;;;;;;;13.59;80.33;101746.66;5069715;28;20060;-67
2021/06/24 03:29:39;;;;;;;21.27;11.18;;;;;;;13.60;80.28;101745.69;5051003;28;20045;-67
2021/06/24 03:32:05;;;;;;;21.65;10.20;;;;;;;13.59;80.30;101732.81;5066835;28;20029;-67
2021/06/24 03:34:30;;;;;;;20.15;11.32;;;;;;;13.60;80.46;101732.66;5070151;28;20041;-67
2021/06/24 03:36:56;;;;;;;19.10;10.80;;;;;;;13.62;80.37;101741.16;5049676;28;20369;-67
2021/06/24 03:39:27;;;;;;;20.13;10.20;;;;;;;13.65;80.46;101749.63;5048502;28;20021;-67
2021/06/24 03:41:53;;;;;;;15.30;10.05;;;;;;;13.60;80.26;101742.28;5048545;28;20020;-67
2021/06/24 03:44:18;;;;;;;19.42;11.02;;;;;;;13.61;80.68;101746.50;5058399;28;20029;-67
2021/06/24 03:46:44;;;;;;;20.20;9.98;;;;;;;13.58;80.86;101745.03;5064960;28;20079;-67
2021/06/24 03:49:11;;;;;;;17.65;10.32;;;;;;;13.58;80.84;101744.19;5069440;28;20037;-67
2021/06/24 03:51:39;;;;;;;16.13;10.60;;;;;;;13.61;80.66;101746.50;5068633;28;20065;-67
2021/06/24 03:54:05;;;;;;;22.75;12.50;;;;;;;13.58;80.65;101747.63;5069791;28;20582;-68
2021/06/24 03:56:34;;;;;;;17.58;9.63;;;;;;;13.65;80.61;101741.81;5050822;28;20029;-67
2021/06/24 03:59:10;;;;;;;16.83;9.52;;;;;;;13.62;80.87;101737.72;5055156;28;20028;-67
2021/06/24 04:01:42;;;;;;;21.77;10.25;;;;;;;13.71;80.60;101741.19;5047382;28;20037;-67
2021/06/24 04:04:10;;;;;;;20.48;10.25;;;;;;;13.70;80.61;101742.16;5051549;28;20024;-67
2021/06/24 04:06:43;;;;;;;18.33;10.38;;;;;;;13.66;80.81;101739.06;5052010;28;20029;-68
2021/06/24 04:09:09;;;;;;;18.83;10.48;;;;;;;13.67;80.50;101727.63;5050222;28;20035;-67
2021/06/24 04:11:36;;;;;;;16.90;10.57;;;;;;;13.72;80.40;101735.81;5035428;28;20119;-67
2021/06/24 04:14:30;;;;;;;20.92;10.93;;;;;;;13.71;80.41;101728.16;5055322;28;20045;-67
2021/06/24 04:17:03;;;;;;;;;;;;;;;13.65;80.60;101729.59;5044311;28;20627;-67
2021/06/24 04:19:29;;;;;;;22.90;10.82;;;;;;;13.64;80.66;101733.19;5066310;28;19995;-68
2021/06/24 04:21:56;;;;;;;17.73;9.48;;;;;;;13.69;80.63;101733.50;5060861;28;20047;-68
2021/06/24 04:24:28;;;;;;;24.63;10.97;;;;;;;13.80;80.10;101741.06;5051819;28;20051;-68
2021/06/24 04:26:54;;;;;;;17.38;9.23;;;;;;;13.81;80.19;101740.13;5068308;28;20047;-67
2021/06/24 04:29:22;;;;;;;19.75;10.55;;;;;;;13.83;80.31;101734.75;5051268;28;20111;-67
2021/06/24 04:31:48;;;;;;;18.73;9.95;;;;;;;13.86;80.20;101731.00;5041054;28;20171;-67
2021/06/24 04:34:13;;;;;;;17.92;10.63;;;;;;;13.96;80.09;101727.31;5040525;28;20032;-68
2021/06/24 04:36:57;;;;;;;19.40;10.88;;;;;;;14.00;79.96;101725.22;5067639;28;20039;-67
2021/06/24 04:39:27;;;;;;;16.02;10.50;;;;;;;14.01;79.97;101719.03;5048959;28;20029;-67
2021/06/24 04:41:53;;;;;;;23.60;11.98;;;;;;;14.10;79.29;101715.47;5048881;28;20548;-68
2021/06/24 04:44:19;;;;;;;16.35;9.73;;;;;;;14.08;79.64;101714.00;5050669;28;20419;-68
2021/06/24 04:46:46;;;;;;;21.27;11.80;;;;;;;14.17;78.81;101726.13;5050410;28;20126;-67
2021/06/24 04:49:13;;;;;;;25.83;11.68;;;;;;;14.16;78.96;101719.25;5050492;28;20473;-67
2021/06/24 04:51:44;;;;;;;20.08;10.23;;;;;;;14.17;79.15;101718.28;5063382;28;20036;-67
2021/06/24 04:54:12;;;;;;;18.98;9.63;;;;;;;14.22;79.40;101721.22;5043900;28;20174;-67
2021/06/24 04:56:39;;;;;;;19.52;10.95;;;;;;;14.25;78.79;101723.53;5043591;28;20123;-67
2021/06/24 04:59:05;;;;;;;21.75;11.27;;;;;;;14.35;78.30;101724.22;5050457;28;20584;-67
2021/06/24 05:01:49;;;;;;;16.92;9.52;;;;;;;14.45;78.25;101718.03;5067021;28;20036;-67
2021/06/24 05:04:33;;;;;;;25.25;10.45;;;;;;;14.50;78.56;101716.56;5068391;28;20055;-67
2021/06/24 05:07:07;;;;;;;19.92;9.98;;;;;;;14.52;78.38;101719.88;5067078;28;20476;-67
2021/06/24 05:09:33;;;;;;;18.85;11.23;;;;;;;14.65;77.81;101716.00;5068222;28;20051;-67
2021/06/24 05:11:58;;;;;;;20.65;10.38;;;;;;;14.75;77.22;101720.09;5065214;28;20021;-67
2021/06/24 05:14:24;;;;;;;23.85;10.27;;;;;;;14.87;76.73;101718.00;5068176;28;20068;-67
2021/06/24 05:16:49;;;;;;;22.13;9.90;;;;;;;14.75;76.72;101719.28;5066619;28;20037;-68
2021/06/24 05:19:15;;;;;;;17.73;10.27;;;;;;;14.73;76.94;101716.84;5067329;28;20033;-67
2021/06/24 05:21:41;;;;;;;23.65;10.48;;;;;;;14.79;77.41;101720.59;5065579;28;20052;-67
2021/06/24 05:24:08;;;;;;;23.42;10.68;;;;;;;14.85;77.06;101719.13;5067900;28;20079;-67
2021/06/24 05:26:34;;;;;;;25.60;10.85;;;;;;;14.99;76.62;101719.31;5067491;28;20024;-67
2021/06/24 05:28:59;;;;;;;21.70;10.98;;;;;;;15.13;75.38;101712.63;5059262;28;20374;-67
2021/06/24 05:31:25;;;;;;;18.13;10.25;;;;;;;15.32;75.41;101718.47;5068419;28;20040;-67
2021/06/24 05:33:50;;;;;;;23.20;10.38;;;;;;;15.52;74.45;101716.31;5067841;28;20024;-67
2021/06/24 05:36:16;;;;;;;22.73;11.07;;;;;;;15.53;73.90;101713.53;5063922;28;20091;-68
2021/06/24 05:38:41;;;;;;;18.77;10.18;;;;;;;15.41;74.80;101714.03;5062027;28;20097;-67
2021/06/24 05:41:06;;;;;;;16.85;9.57;;;;;;;15.45;74.35;101713.56;5067661;28;20149;-67
2021/06/24 05:43:32;;;;;;;19.88;9.82;;;;;;;15.73;74.44;101711.41;5068144;28;20043;-67
2021/06/24 05:45:57;;;;;;;21.70;10.10;;;;;;;15.87;73.20;101709.09;5065814;28;20039;-67
2021/06/24 05:48:23;;;;;;;24.58;10.32;;;;;;;15.85;73.29;101717.09;5068251;28;20040;-67
2021/06/24 05:50:48;;;;;;;26.92;12.30;;;;;;;15.85;73.39;101722.31;5073768;28;20111;-68
2021/06/24 05:53:13;;;;;;;25.85;10.93;;;;;;;15.76;73.53;101716.31;5073034;28;20070;-67
2021/06/24 05:55:51;;;;;;;19.85;10.57;;;;;;;15.81;73.02;101726.25;5072651;28;20043;-67
2021/06/24 05:58:18;;;;;;;13.57;9.40;;;;;;;15.97;72.85;101720.16;5074030;28;20088;-67
2021/06/24 06:00:44;;;;;;;16.95;10.20;;;;;;;16.12;72.41;101721.09;5056402;28;20629;-67
2021/06/24 06:03:10;;;;;;;19.85;10.73;;;;;;;16.54;71.68;101714.66;5074067;28;20032;-67
2021/06/24 06:05:36;;;;;;;20.90;11.23;;;;;;;16.71;70.35;101722.41;5055538;28;20081;-67
2021/06/24 06:08:04;;;;;;;15.55;9.52;;;;;;;16.81;70.00;101720.34;5072550;28;20035;-67
2021/06/24 06:10:31;;;;;;;20.13;10.90;;;;;;;16.86;69.96;101714.66;5073321;28;20051;-67
2021/06/24 06:12:56;;;;;;;29.63;11.52;;;;;;;16.62;70.49;101708.53;5071954;28;20029;-67
2021/06/24 06:15:22;;;;;;;30.10;11.70;;;;;;;16.45;70.57;101715.69;5055524;28;20526;-68
2021/06/24 06:17:48;;;;;;;22.80;12.38;;;;;;;16.39;71.22;101715.53;5055949;28;20029;-67
2021/06/24 06:20:14;;;;;;;19.27;12.10;;;;;;;16.15;71.85;101718.13;5074021;28;20025;-67
2021/06/24 06:22:39;;;;;;;25.92;12.90;;;;;;;16.05;72.86;101719.28;5055172;28;20067;-67
2021/06/24 06:25:05;;;;;;;26.08;12.70;;;;;;;16.06;72.60;101719.13;5072538;28;20048;-67
2021/06/24 06:27:31;;;;;;;23.13;12.63;;;;;;;16.17;72.24;101717.94;5055573;28;20107;-67
2021/06/24 06:29:56;;;;;;;23.27;12.32;;;;;;;16.23;72.31;101725.09;5071535;28;20120;-67
2021/06/24 06:32:22;;;;;;;24.00;13.18;;;;;;;16.27;71.75;101715.13;5073550;28;20074;-67
2021/06/24 06:34:48;;;;;;;35.95;15.18;;;;;;;16.92;69.88;101706.88;5073163;28;20040;-67
2021/06/24 06:37:13;;;;;;;26.70;14.20;;;;;;;17.34;69.04;101707.34;5063570;28;20032;-68
2021/06/24 06:39:39;;;;;;;29.35;13.57;;;;;;;17.21;67.92;101707.94;5072802;28;20028;-67
2021/06/24 06:42:05;;;;;;;33.33;15.75;;;;;;;17.27;68.13;101704.63;5074206;28;20783;-68
2021/06/24 06:44:30;;;;;;;35.08;17.95;;;;;;;17.15;68.75;101700.81;5074079;28;20040;-67
2021/06/24 06:46:55;;;;;;;78.60;40.72;;;;;;;17.19;68.76;101698.63;5054631;28;20116;-67
2021/06/24 06:49:21;;;;;;;57.15;30.70;;;;;;;17.22;68.78;101698.28;5060626;28;20042;-67
2021/06/24 06:51:46;;;;;;;49.17;27.13;;;;;;;17.09;68.96;101698.91;5072276;28;20535;-67
2021/06/24 06:54:12;;;;;;;58.47;29.30;;;;;;;17.25;68.79;101703.16;5066066;28;20033;-68
2021/06/24 06:56:37;;;;;;;51.75;30.67;;;;;;;17.28;68.44;101697.56;5073895;28;20037;-67
2021/06/24 06:59:05;;;;;;;54.05;29.95;;;;;;;17.12;68.47;101698.53;5073776;28;20112;-68
2021/06/24 07:01:31;;;;;;;60.13;29.55;;;;;;;17.11;68.98;101696.91;5071135;28;20050;-67
2021/06/24 07:03:57;;;;;;;59.20;30.13;;;;;;;17.14;69.71;101704.44;5070454;28;20482;-67
2021/06/24 07:06:25;;;;;;;64.07;29.98;;;;;;;17.40;68.75;101706.63;5070012;28;20045;-68
2021/06/24 07:08:50;;;;;;;60.60;31.92;;;;;;;17.64;67.39;101700.31;5070584;28;20029;-67
2021/06/24 07:11:16;;;;;;;60.70;32.13;;;;;;;17.84;66.42;101697.16;5071073;28;20043;-68
2021/06/24 07:13:42;;;;;;;56.78;30.98;;;;;;;17.97;66.76;101704.38;5070297;28;20123;-67
2021/06/24 07:16:07;;;;;;;61.50;32.00;;;;;;;17.83;66.38;101696.31;5068304;28;20139;-68
2021/06/24 07:18:32;;;;;;;53.40;32.30;;;;;;;17.90;66.88;101702.50;5068718;28;20055;-68
2021/06/24 07:20:58;;;;;;;52.97;31.50;;;;;;;18.33;65.54;101700.97;5067595;28;22125;-68
2021/06/24 07:23:24;;;;;;;62.10;33.53;;;;;;;18.51;65.02;101697.94;5051741;28;20028;-68
2021/06/24 07:25:49;;;;;;;56.53;33.60;;;;;;;18.98;62.94;101696.56;5070362;28;20485;-68
2021/06/24 07:28:15;;;;;;;61.47;34.90;;;;;;;19.25;62.46;101693.16;5054256;28;20639;-67
2021/06/24 07:30:41;;;;;;;52.92;35.08;;;;;;;19.32;61.74;101695.81;5053814;28;20068;-68
2021/06/24 07:33:06;;;;;;;51.83;34.08;;;;;;;19.45;61.21;101692.44;5070322;28;20401;-68
2021/06/24 07:35:32;;;;;;;55.70;36.92;;;;;;;19.20;62.57;101689.47;5067679;28;20036;-68
2021/06/24 07:37:57;;;;;;;59.92;35.35;;;;;;;18.85;63.53;101694.63;5064288;28;20048;-68
2021/06/24 07:40:23;;;;;;;58.88;36.90;;;;;;;18.98;63.26;101694.75;5068868;28;20036;-68
2021/06/24 07:42:48;;;;;;;59.95;38.45;;;;;;;19.04;63.41;101696.63;5067210;28;20040;-68
2021/06/24 07:45:14;;;;;;;64.03;39.28;;;;;;;18.93;63.46;101696.31;5070622;28;20025;-68
2021/06/24 07:47:40;;;;;;;66.15;45.33;;;;;;;18.71;63.28;101698.13;5051968;28;20032;-68
2021/06/24 07:50:06;;;;;;;65.45;41.67;;;;;;;18.69;63.37;101690.44;5068529;28;20028;-68
2021/06/24 07:52:31;;;;;;;65.80;42.22;;;;;;;18.47;64.04;101695.66;5069370;28;20098;-68
2021/06/24 07:54:57;;;;;;;76.03;47.67;;;;;;;18.65;64.59;101691.81;5069594;28;20032;-68
2021/06/24 07:57:22;;;;;;;70.03;46.50;;;;;;;18.73;64.55;101696.94;5066769;28;20089;-68
2021/06/24 07:59:48;;;;;;;77.30;49.60;;;;;;;18.50;63.61;101691.88;5069802;28;20200;-68
2021/06/24 08:02:13;;;;;;;85.47;49.58;;;;;;;18.37;65.64;101687.28;5070118;28;20029;-68
2021/06/24 08:04:39;;;;;;;79.88;47.55;;;;;;;18.31;65.98;101685.41;5068355;28;20108;-68
2021/06/24 08:07:04;;;;;;;82.28;47.20;;;;;;;18.21;66.00;101696.19;5066946;28;20060;-68
2021/06/24 08:09:30;;;;;;;76.95;47.35;;;;;;;18.51;64.85;101687.44;5065591;28;20063;-68
2021/06/24 08:11:56;;;;;;;81.03;46.80;;;;;;;18.99;64.04;101691.13;5068776;28;20024;-68
2021/06/24 08:14:23;;;;;;;79.65;46.13;;;;;;;18.86;63.67;101691.81;5068765;28;20024;-68
2021/06/24 08:16:49;;;;;;;84.43;47.22;;;;;;;18.58;64.31;101693.56;5068081;28;20048;-68
2021/06/24 08:19:15;;;;;;;77.82;47.13;;;;;;;18.33;64.69;101701.81;5063219;28;20071;-67
2021/06/24 08:21:41;;;;;;;85.90;49.33;;;;;;;18.25;65.44;101700.09;5050273;28;20064;-68
2021/06/24 08:24:06;;;;;;;80.13;48.95;;;;;;;18.16;65.92;101703.84;5068536;28;20039;-68
2021/06/24 08:26:32;;;;;;;77.85;50.22;;;;;;;18.16;65.94;101706.47;5049078;28;20070;-68
2021/06/24 08:28:57;;;;;;;78.80;48.20;;;;;;;18.32;65.40;101702.78;5068727;28;20089;-68
2021/06/24 08:31:23;;;;;;;81.53;50.25;;;;;;;18.54;64.84;101697.56;5067722;28;20048;-68
2021/06/24 08:33:49;;;;;;;78.63;46.70;;;;;;;18.70;64.87;101697.31;5054974;28;20535;-68
2021/06/24 08:36:14;;;;;;;69.57;45.60;;;;;;;18.70;64.32;101702.56;5068151;28;20045;-68
2021/06/24 08:38:40;;;;;;;77.97;48.80;;;;;;;18.49;64.35;101693.66;5067638;28;20040;-68
2021/06/24 08:41:05;;;;;;;83.55;47.17;;;;;;;18.39;64.91;101695.78;5067678;28;20058;-68
2021/06/24 08:43:31;;;;;;;87.75;48.03;;;;;;;18.30;65.37;101699.53;5067027;28;20523;-68
2021/06/24 08:46:02;;;;;;;79.18;47.70;;;;;;;18.23;65.22;101699.47;5068673;28;20025;-68
2021/06/24 08:48:33;;;;;;;67.97;43.55;;;;;;;18.24;65.65;101703.72;5050700;28;20492;-68
2021/06/24 08:50:58;;;;;;;80.30;48.40;;;;;;;18.36;65.01;101709.28;5066156;28;20024;-68
2021/06/24 08:53:24;;;;;;;73.90;45.72;;;;;;;18.42;65.05;101698.06;5053516;28;20370;-68
2021/06/24 08:55:53;;;;;;;75.88;46.83;;;;;;;18.45;65.50;101699.50;5068590;28;20040;-68
2021/06/24 08:58:19;;;;;;;73.25;44.70;;;;;;;18.61;65.35;101704.50;5068869;28;20145;-67
2021/06/24 09:00:45;;;;;;;79.90;48.00;;;;;;;18.72;64.25;101705.00;5050956;28;20485;-69
2021/06/24 09:03:17;;;;;;;77.32;48.85;;;;;;;18.90;64.62;101710.66;5050056;28;20039;-68
2021/06/24 09:05:47;;;;;;;77.72;49.13;;;;;;;19.03;63.80;101702.06;5064138;28;20188;-68
2021/06/24 09:08:21;;;;;;;73.65;47.85;;;;;;;19.09;63.55;101703.13;5068566;28;20032;-68
2021/06/24 09:11:06;;;;;;;77.03;50.40;;;;;;;19.23;63.30;101695.16;5050715;28;20056;-68
2021/06/24 09:13:32;;;;;;;77.40;49.05;;;;;;;19.34;63.14;101698.25;5068688;28;20041;-68
2021/06/24 09:16:04;;;;;;;78.78;49.72;;;;;;;19.46;62.94;101696.72;5068326;28;20023;-68
2021/06/24 09:18:30;;;;;;;71.88;43.80;;;;;;;19.54;62.11;101707.06;5049905;28;20036;-68
2021/06/24 09:20:55;;;;;;;59.78;41.20;;;;;;;19.42;63.00;101700.72;5066845;28;20044;-68
2021/06/24 09:23:24;;;;;;;60.00;39.40;;;;;;;19.44;61.80;101702.16;5068015;28;20032;-68
2021/06/24 09:26:12;;;;;;;58.28;37.97;;;;;;;19.51;62.84;101698.75;5066284;28;20127;-68
2021/06/24 09:28:44;;;;;;;63.28;37.63;;;;;;;19.78;63.43;101705.00;5066352;28;20040;-68
2021/06/24 09:31:26;;;;;;;65.50;40.17;;;;;;;19.80;61.63;101695.09;5068228;28;20024;-68
2021/06/24 09:33:53;;;;;;;61.95;37.63;;;;;;;20.02;61.65;101699.25;5066627;28;20166;-68
2021/06/24 09:36:39;;;;;;;60.17;37.47;;;;;;;20.22;61.07;101688.75;5062566;28;20116;-68
2021/06/24 09:39:27;;;;;;;57.60;36.33;;;;;;;20.73;58.93;101689.28;5061017;28;20025;-68
2021/06/24 09:41:57;;;;;;;47.17;32.50;;;;;;;20.70;59.28;101682.63;5067584;28;20031;-68
2021/06/24 09:44:26;;;;;;;55.50;34.95;;;;;;;21.04;58.31;101690.50;5065337;28;20471;-68
2021/06/24 09:46:52;;;;;;;45.58;31.52;;;;;;;21.23;58.44;101680.94;5049934;28;20041;-68
2021/06/24 09:49:34;;;;;;;54.30;34.03;;;;;;;21.14;57.13;101685.63;5067775;28;20697;-68
2021/06/24 09:52:02;;;;;;;48.45;33.05;;;;;;;20.99;58.64;101689.28;5068295;28;20584;-68
2021/06/24 09:54:34;;;;;;;45.85;31.08;;;;;;;21.15;58.03;101677.53;5053307;28;20493;-68
2021/06/24 09:57:02;;;;;;;57.33;34.67;;;;;;;21.49;57.57;101686.22;5064350;28;20047;-68
2021/06/24 09:59:37;;;;;;;52.45;34.83;;;;;;;21.95;55.88;101681.78;5065419;28;20396;-68
2021/06/24 10:02:11;;;;;;;49.85;33.55;;;;;;;22.04;55.48;101679.69;5064670;28;20062;-69
2021/06/24 10:04:39;;;;;;;47.63;33.70;;;;;;;22.29;55.79;101680.59;5064263;28;20075;-69
2021/06/24 10:07:08;;;;;;;48.15;33.08;;;;;;;22.33;54.32;101678.34;5049883;28;20032;-69
2021/06/24 10:09:34;;;;;;;50.28;34.78;;;;;;;22.05;53.67;101676.03;5067804;28;20044;-69
2021/06/24 10:12:00;;;;;;;46.55;31.42;;;;;;;22.15;54.47;101671.09;5056378;28;20374;-68
2021/06/24 10:14:28;;;;;;;45.40;31.13;;;;;;;22.14;53.28;101677.41;5045603;28;20078;-68
2021/06/24 10:16:58;;;;;;;46.28;33.38;;;;;;;22.10;53.80;101674.38;5066248;28;20111;-69
2021/06/24 10:19:25;;;;;;;46.83;31.70;;;;;;;22.00;55.67;101668.75;5064315;28;20024;-69
2021/06/24 10:21:57;;;;;;;46.80;32.60;;;;;;;22.03;54.79;101678.09;5066897;28;20484;-69
2021/06/24 10:24:30;;;;;;;52.58;35.08;;;;;;;22.19;54.99;101676.75;5048722;28;20024;-69
2021/06/24 10:26:58;;;;;;;48.67;32.90;;;;;;;22.31;54.13;101681.19;5046859;28;20044;-68
2021/06/24 10:29:24;;;;;;;48.97;32.63;;;;;;;22.17;54.28;101677.81;5027648;28;20036;-69
2021/06/24 10:31:55;;;;;;;44.95;33.50;;;;;;;22.27;54.06;101674.72;5064153;28;20078;-69
2021/06/24 10:34:21;;;;;;;46.55;32.90;;;;;;;22.11;53.92;101672.53;5058383;28;20043;-69
2021/06/24 10:37:09;;;;;;;50.35;32.88;;;;;;;21.98;54.64;101676.06;5064984;28;20123;-69
2021/06/24 10:39:35;;;;;;;43.35;30.15;;;;;;;22.11;54.21;101669.91;5069664;28;20047;-69
2021/06/24 10:42:02;;;;;;;38.85;30.25;;;;;;;22.12;54.69;101667.06;5066320;28;20028;-69
2021/06/24 10:44:46;;;;;;;42.78;27.17;;;;;;;22.03;54.06;101670.97;5065777;28;20040;-69
2021/06/24 10:47:11;;;;;;;35.85;25.63;;;;;;;22.10;54.79;101669.09;5064474;28;20377;-69
2021/06/24 10:49:38;;;;;;;36.47;24.52;;;;;;;22.49;54.25;101664.63;5068889;28;20036;-69
2021/06/24 10:52:27;;;;;;;42.03;26.58;;;;;;;22.96;53.38;101661.56;5068248;28;20107;-69
2021/06/24 10:54:57;;;;;;;34.88;24.25;;;;;;;23.42;52.95;101656.88;5067290;28;20032;-69
2021/06/24 10:57:31;;;;;;;41.42;23.77;;;;;;;23.49;51.69;101660.28;5069449;28;20032;-69
2021/06/24 11:00:32;;;;;;;31.95;23.20;;;;;;;23.86;50.12;101649.66;5047632;28;20032;-69
2021/06/24 11:02:59;;;;;;;41.92;27.33;;;;;;;23.81;48.20;101655.63;5069397;28;20070;-69
2021/06/24 11:05:39;;;;;;;35.55;25.42;;;;;;;23.85;50.49;101651.50;5067377;28;20562;-69
2021/06/24 11:08:19;;;;;;;35.05;23.50;;;;;;;23.75;51.92;101651.16;5058794;28;20078;-69
2021/06/24 11:11:00;;;;;;;36.92;26.20;;;;;;;23.74;49.63;101646.94;5050649;28;20059;-69
2021/06/24 11:13:47;;;;;;;36.92;25.23;;;;;;;23.69;50.16;101646.78;5068538;28;20082;-69
2021/06/24 11:16:16;;;;;;;34.33;24.15;;;;;;;23.28;51.19;101651.75;5063520;28;20039;-69
2021/06/24 11:18:48;;;;;;;30.23;22.10;;;;;;;23.37;52.81;101644.31;5065022;28;20526;-70